Terminal Aerodrome Forecast
Issued by NWS Duluth, MN

Home | Current Version | Previous Version | Text Only | Print | Product List | Glossary Off
Versions: 1 2 3 4 5 6 7 8 9 10 11 12 13 14 15 16 17 18 19 20 21 22 23 24

000
FTUS43 KDLH 210000 AAA
TAFINL
TAF AMD
KINL 210053Z 2101/2124 17005KT 5SM BR OVC009
      TEMPO 2101/2103 3SM BR BKN005 OVC010
     FM210900 15006KT 2SM -SN OVC006
      TEMPO 2109/2112 1SM -SN BR OVC004
     FM211200 15007KT 4SM -FZDZSN OVC005
     FM211700 16008KT 5SM BR OVC007=

USA.gov is the U.S. government's official web portal to all federal, state and local government web resources and services.